Alexandria, AL

1:39 PM CST on March 05, 2015 (GMT -0600)
Weaver, AL | Change Station
CLOSE
Current Station
Personal Weather Station
Location: Weaver, AL
Elevation: 760 ft
Nearby Weather Stations
Active Advisory: Winter Weather Advisory

Elev 760 ft 33.75 °N, 85.84 °W | Updated 5 seconds ago

Rain
Rain
39.0 °F
Feels Like 39 °F
N
0.0
Wind Variable Wind from North
Gusts 0.0 mph

Today
High -- | Low -- °F
--% Chance of Precip.
Yesterday
High -- | Low -- °F
Precip. -- in
6:07 AM 5:43 PM
Full, 100% visible
Pressure 30.23 in
Visibility 10.0 miles
Clouds Overcast 900 ft
Windchill 39 °F
Dew Point 36 °F
Humidity 89%
Rainfall in
Snow Depth Not available.
UV 2 out of 12
Pollen 1.00 out of 12
Air Quality Not available.
Flu Activity Not available.
SPECI KANB 051910Z AUTO 30011G18KT 10SM OVC009 03/01 A3023 RMK AO2 T00280006

More Conditions Fewer Conditions

Pressure 30.23 in
Visibility 10.0 miles
Clouds Overcast 900 ft
Windchill 39 °F
Dew Point 36 °F
Humidity 89%
Rainfall in
Snow Depth Not available.
UV 2 out of 12
Pollen 1.00 out of 12
Air Quality Not available.
Flu Activity Not available.
SPECI KANB 051910Z AUTO 30011G18KT 10SM OVC009 03/01 A3023 RMK AO2 T00280006

More Conditions Fewer Conditions

10-Day Weather Forecast

Almanac

Astronomy

Mar. 05, 2015 Rise Set
Actual Time
Civil Twilight
Nautical Twilight
Astronomical Twilight
Moon
Length of Visible Light
Length of Day
Tomorrow will be .
, % of the Moon is Illuminated

Today's Extremes

State Highs State Lows

Community

WunderPhotos

Upload Photos

1,802,925 photos uploaded!

WunderBlogs® & News

Nearby

Air Quality

  Air Quality AQ Index Pollutant
Not available.

Snow Depth

Station Depth Elevation

Earthquake Activity

City Distance Mag. Time & Date
Minimum magnitude displayed is 2.5.

Coastal Water Temperatures

Place Temperature

Nearby Weather Stations

Winter Weather Advisory
Statement as of 1:22 PM CST on March 05, 2015

... Winter Weather Advisory in effect until 6 PM CST this
evening...

The National Weather Service in Birmingham has issued a Winter
Weather Advisory for sleet... snow and freezing rain... which is in
effect until 6 PM CST this evening.

* Timing... through 6 PM.

* Location... along and north of Clanton to Heflin.

* Accumulations... of sleet up to a quarter of an inch... with minor
freezing rain accumulation.

Precautionary/preparedness actions...

A Winter Weather Advisory means that periods of snow... sleet... or
freezing rain will cause travel difficulties. Be prepared for
slippery roads and limited visibilities... and use caution while
driving.